パース の空港の天気 - METARとTAF

パース空港 ( YPPH / PER ) - オーストラリア 西オーストラリア州パース
飛行場実況気象(Metar)
観測時間01/19 23:00 AWST (01/19 15:00 UTC)
風向・風速南南西 3m/s
視程10km以上
天気現象
なし
気温27℃
湿度39%
気圧1013hPa
METARYPPH 191500Z 21006KT CAVOK 27/12 Q1013 NOSIG
過去の天気等 Google飛行場航空写真 Wunderground天気予報

過去48時間のMETAR

飛行場予報(TAF)
発表時間: 1/19 19:00 AWST (1/19 11:00 UTC)
予報対象時間: 19日20時 AWST ~ 21日2時 AWST
風向・風速南西 7m/s
視程10km以上
なし
19日21時 AWST から
風向・風速南 4m/s
視程10km以上
なし
20日3時 AWST から
風向・風速東北東 5m/s
視程10km以上
なし
20日8時 AWST から
風向・風速北 5m/s
視程10km以上
なし
20日14時 AWST から
風向・風速南西 7m/s
視程10km以上
なし
21日0時 AWST から
風向・風速南 3m/s
視程10km以上
なし
TAF YPPH 191100Z 1912/2018 22014KT CAVOK
FM191300 17008KT CAVOK
FM191900 07010KT CAVOK
FM200000 35009KT CAVOK
FM200600 23014KT CAVOK
FM201600 17005KT CAVOK